createdAt,value
2018-10-03T00:01:36.062Z,99.900002
2018-10-03T00:06:38.380Z,99.900002
2018-10-03T00:11:40.642Z,99.900002
2018-10-03T00:16:42.976Z,99.800003
2018-10-03T00:21:45.252Z,99.900002
2018-10-03T00:26:47.584Z,99.900002
2018-10-03T00:31:49.974Z,99.900002
2018-10-03T00:36:52.147Z,99.900002
2018-10-03T00:41:54.421Z,99.900002
2018-10-03T00:46:56.726Z,99.900002
2018-10-03T00:51:58.933Z,99.900002
2018-10-03T00:57:01.300Z,99.900002
2018-10-03T01:02:03.679Z,99.900002
2018-10-03T01:07:05.915Z,99.900002
2018-10-03T01:12:08.191Z,99.900002
2018-10-03T01:17:10.496Z,99.900002
2018-10-03T01:22:12.757Z,99.900002
2018-10-03T01:27:15.109Z,99.900002
2018-10-03T01:32:17.361Z,99.900002
2018-10-03T01:37:19.603Z,99.900002
2018-10-03T01:42:22.009Z,99.900002
2018-10-03T01:47:24.224Z,99.900002
2018-10-03T01:52:26.845Z,99.900002
2018-10-03T01:57:28.913Z,99.900002
2018-10-03T02:02:31.181Z,99.900002
2018-10-03T02:07:33.379Z,99.900002
2018-10-03T02:12:35.855Z,99.900002
2018-10-03T02:17:38.025Z,99.900002
2018-10-03T02:22:40.298Z,99.900002
2018-10-03T02:27:42.697Z,99.900002
2018-10-03T02:32:45.057Z,99.900002
2018-10-03T02:37:47.239Z,99.900002
2018-10-03T02:42:49.551Z,99.900002
2018-10-03T02:47:51.729Z,99.900002
2018-10-03T02:52:53.999Z,99.900002
2018-10-03T02:57:56.379Z,99.900002
2018-10-03T03:02:58.677Z,99.900002
2018-10-03T03:08:00.973Z,99.900002
2018-10-03T03:13:03.194Z,99.900002
2018-10-03T03:18:05.625Z,99.900002
2018-10-03T03:23:07.868Z,99.900002
2018-10-03T03:28:10.190Z,99.900002
2018-10-03T03:33:12.554Z,99.900002
2018-10-03T03:38:14.802Z,99.900002
2018-10-03T03:43:17.017Z,99.900002
2018-10-03T03:48:19.370Z,99.900002
2018-10-03T03:53:21.535Z,99.900002
2018-10-03T03:58:23.916Z,99.900002
2018-10-03T04:03:26.253Z,99.900002
2018-10-03T04:08:28.571Z,99.900002
2018-10-03T04:13:30.794Z,99.900002
2018-10-03T04:18:33.041Z,99.900002
2018-10-03T04:23:35.467Z,99.900002
2018-10-03T04:28:37.742Z,99.900002
2018-10-03T04:33:39.965Z,99.900002
2018-10-03T04:38:42.454Z,99.900002
2018-10-03T04:43:44.633Z,99.900002
2018-10-03T04:48:46.955Z,99.900002
2018-10-03T04:53:49.064Z,99.900002
2018-10-03T04:58:51.458Z,99.900002
2018-10-03T05:03:53.668Z,99.900002
2018-10-03T05:08:55.972Z,99.900002
2018-10-03T05:13:58.313Z,99.900002
2018-10-03T05:19:00.689Z,99.900002
2018-10-03T05:24:02.983Z,99.900002
2018-10-03T05:29:05.160Z,99.900002
2018-10-03T05:34:07.395Z,99.900002
2018-10-03T05:39:09.910Z,99.900002
2018-10-03T05:44:11.986Z,99.900002
2018-10-03T05:49:14.384Z,99.900002
2018-10-03T05:54:16.750Z,99.900002
2018-10-03T05:59:18.905Z,99.900002
2018-10-03T06:04:21.178Z,99.900002
2018-10-03T06:09:23.524Z,99.900002
2018-10-03T06:14:25.889Z,99.900002
2018-10-03T06:19:28.147Z,99.900002
2018-10-03T06:24:30.356Z,99.900002
2018-10-03T06:29:32.725Z,99.900002
2018-10-03T06:34:34.924Z,99.400002
2018-10-03T06:39:37.238Z,97.5
2018-10-03T06:44:39.599Z,95.900002
2018-10-03T06:49:41.810Z,96.199997
2018-10-03T06:54:44.144Z,94.300003
2018-10-03T06:59:46.495Z,90
2018-10-03T07:04:48.866Z,88.199997
2018-10-03T07:09:50.996Z,88.300003
2018-10-03T07:14:53.470Z,90.099998
2018-10-03T07:19:55.633Z,90.5
2018-10-03T07:24:57.945Z,90.5
2018-10-03T07:30:00.357Z,91.5
2018-10-03T07:35:02.503Z,89.800003
2018-10-03T07:40:04.779Z,90.099998
2018-10-03T07:45:07.196Z,89.900002
2018-10-03T07:50:09.432Z,87.900002
2018-10-03T07:55:11.713Z,87.400002
2018-10-03T08:00:14.016Z,85.5
2018-10-03T08:10:18.592Z,83.099998
2018-10-03T08:15:20.938Z,82.800003
2018-10-03T08:20:23.181Z,82.199997
2018-10-03T08:25:25.441Z,82.099998
2018-10-03T08:30:27.714Z,79.699997
2018-10-03T08:35:30.078Z,78.699997
2018-10-03T08:40:32.369Z,77.599998
2018-10-03T08:45:34.637Z,78.199997
2018-10-03T08:50:36.961Z,76.599998
2018-10-03T08:55:39.273Z,76.599998
2018-10-03T09:00:41.499Z,76.199997
2018-10-03T09:05:43.879Z,72.5
2018-10-03T09:10:46.196Z,72
2018-10-03T09:15:48.412Z,70.099998
2018-10-03T09:20:50.709Z,68.199997
2018-10-03T09:25:52.920Z,70
2018-10-03T09:30:55.306Z,66
2018-10-03T09:35:57.561Z,65.599998
2018-10-03T09:40:59.918Z,63.5
2018-10-03T09:46:02.134Z,62.200001
2018-10-03T09:51:04.536Z,63.599998
2018-10-03T09:56:06.716Z,64
2018-10-03T10:01:09.108Z,61.700001
2018-10-03T10:06:11.316Z,57.299999
2018-10-03T10:11:13.756Z,57.700001
2018-10-03T10:16:15.930Z,59.400002
2018-10-03T10:21:18.237Z,61.700001
2018-10-03T10:26:20.476Z,59
2018-10-03T10:31:22.993Z,58.099998
2018-10-03T10:36:25.153Z,57.599998
2018-10-03T10:41:27.607Z,54.5
2018-10-03T10:46:29.708Z,56.299999
2018-10-03T10:51:32.040Z,58.599998
2018-10-03T10:56:34.322Z,61.099998
2018-10-03T11:01:36.590Z,55.599998
2018-10-03T11:06:39.312Z,51.900002
2018-10-03T11:11:41.221Z,55.700001
2018-10-03T11:16:43.555Z,58.099998
2018-10-03T11:21:45.684Z,53.5
2018-10-03T11:26:48.034Z,48.700001
2018-10-03T11:31:50.692Z,49.700001
2018-10-03T11:36:52.692Z,46.299999
2018-10-03T11:41:54.885Z,46.400002
2018-10-03T11:46:57.227Z,49.599998
2018-10-03T11:51:59.588Z,52.299999
2018-10-03T11:57:01.972Z,50.599998
2018-10-03T12:02:04.164Z,41.700001
2018-10-03T12:07:06.455Z,43
2018-10-03T12:12:08.797Z,44.400002
2018-10-03T12:17:10.984Z,38.200001
2018-10-03T12:22:13.404Z,40.099998
2018-10-03T12:27:15.769Z,43.700001
2018-10-03T12:32:17.813Z,43.400002
2018-10-03T12:37:20.125Z,42.799999
2018-10-03T12:42:22.499Z,43.5
2018-10-03T12:47:24.773Z,41.700001
2018-10-03T12:52:27.058Z,40.5
2018-10-03T13:02:31.720Z,40.400002
2018-10-03T13:07:33.976Z,40.099998
2018-10-03T13:12:36.596Z,40.599998
2018-10-03T13:17:38.692Z,38.900002
2018-10-03T13:22:40.748Z,40.599998
2018-10-03T13:27:43.090Z,46.200001
2018-10-03T13:32:45.359Z,42.5
2018-10-03T13:37:47.838Z,39.400002
2018-10-03T13:42:50.106Z,41.5
2018-10-03T13:47:52.250Z,40.900002
2018-10-03T13:52:54.523Z,42.299999
2018-10-03T13:57:57.014Z,44.599998
2018-10-03T14:02:59.205Z,44.5
2018-10-03T14:08:01.517Z,45.200001
2018-10-03T14:13:03.781Z,45.799999
2018-10-03T14:18:05.994Z,45
2018-10-03T14:23:08.519Z,43.400002
2018-10-03T14:28:10.617Z,45.700001
2018-10-03T14:33:12.967Z,46.299999
2018-10-03T14:38:15.284Z,48.599998
2018-10-03T14:43:17.612Z,47.5
2018-10-03T14:48:19.829Z,48.599998
2018-10-03T14:53:22.186Z,48.799999
2018-10-03T14:58:24.560Z,51.5
2018-10-03T15:03:26.701Z,53.900002
2018-10-03T15:08:29.035Z,51.799999
2018-10-03T15:13:31.345Z,53.099998
2018-10-03T15:18:33.620Z,54.200001
2018-10-03T15:23:37.470Z,51.700001
2018-10-03T15:28:38.214Z,50
2018-10-03T15:33:40.477Z,48.799999
2018-10-03T15:38:42.726Z,53
2018-10-03T15:43:45.044Z,53
2018-10-03T15:48:47.456Z,53.299999
2018-10-03T15:53:49.639Z,53.700001
2018-10-03T15:58:51.907Z,55.299999
2018-10-03T16:03:54.183Z,53.900002
2018-10-03T16:08:56.602Z,53
2018-10-03T16:13:58.779Z,53.599998
2018-10-03T16:19:01.064Z,54.200001
2018-10-03T16:24:03.468Z,55.900002
2018-10-03T16:29:05.656Z,60.299999
2018-10-03T16:34:07.970Z,61.400002
2018-10-03T16:39:10.563Z,62.099998
2018-10-03T16:44:12.646Z,66.400002
2018-10-03T16:49:14.889Z,67.5
2018-10-03T16:54:17.095Z,69.800003
2018-10-03T16:59:19.480Z,70
2018-10-03T17:04:21.819Z,71.400002
2018-10-03T17:09:24.047Z,73.800003
2018-10-03T17:14:26.378Z,73.599998
2018-10-03T17:19:28.919Z,76.400002
2018-10-03T17:24:31.121Z,76.800003
2018-10-03T17:29:33.153Z,80.5
2018-10-03T17:34:35.692Z,80
2018-10-03T17:39:37.829Z,77.300003
2018-10-03T17:44:40.112Z,75.800003
2018-10-03T17:49:42.541Z,77.199997
2018-10-03T17:54:44.819Z,76
2018-10-03T17:59:47.005Z,73.800003
2018-10-03T18:04:49.261Z,74.400002
2018-10-03T18:09:51.594Z,78
2018-10-03T18:14:53.904Z,76.599998
2018-10-03T18:19:56.219Z,77.599998
2018-10-03T18:24:58.507Z,75.199997
2018-10-03T18:30:00.793Z,75.199997
2018-10-03T18:35:03.107Z,77.599998
2018-10-03T18:40:05.322Z,76.300003
2018-10-03T18:45:07.687Z,75.900002
2018-10-03T18:50:09.943Z,75.400002
2018-10-03T18:55:12.236Z,76.300003
2018-10-03T19:00:14.588Z,77
2018-10-03T19:05:16.914Z,76.199997
2018-10-03T19:10:19.095Z,77.800003
2018-10-03T19:15:21.624Z,78.900002
2018-10-03T19:20:23.662Z,78.699997
2018-10-03T19:25:26.094Z,78.699997
2018-10-03T19:30:28.468Z,78.800003
2018-10-03T19:35:30.739Z,78.400002
2018-10-03T19:40:33.014Z,78.400002
2018-10-03T19:45:35.227Z,78.599998
2018-10-03T19:50:37.437Z,79
2018-10-03T19:55:39.900Z,79.400002
2018-10-03T20:00:42.202Z,80.5
2018-10-03T20:05:44.372Z,80.300003
2018-10-03T20:10:46.804Z,80.599998
2018-10-03T20:15:48.841Z,79.699997
2018-10-03T20:20:51.265Z,81.099998
2018-10-03T20:25:53.519Z,80.699997
2018-10-03T20:30:55.793Z,81.300003
2018-10-03T20:35:58.088Z,80.900002
2018-10-03T20:41:00.371Z,81.199997
2018-10-03T20:46:02.722Z,81.099998
2018-10-03T20:51:04.992Z,81.5
2018-10-03T20:56:07.267Z,81.400002
2018-10-03T21:01:09.541Z,82.099998
2018-10-03T21:06:11.903Z,81.900002
2018-10-03T21:11:14.095Z,83.099998
2018-10-03T21:16:16.461Z,83.199997
2018-10-03T21:21:18.836Z,83.199997
2018-10-03T21:26:21.007Z,83.400002
2018-10-03T21:31:23.256Z,83.800003
2018-10-03T21:36:25.633Z,84.099998
2018-10-03T21:41:27.913Z,84.599998
2018-10-03T21:46:30.263Z,84.599998
2018-10-03T21:51:32.565Z,84.599998
2018-10-03T21:56:34.921Z,85.400002
2018-10-03T22:01:37.058Z,86.099998
2018-10-03T22:06:39.508Z,85
2018-10-03T22:11:41.678Z,85.800003
2018-10-03T22:16:44.004Z,86.199997
2018-10-03T22:21:46.312Z,86.5
2018-10-03T22:26:48.534Z,86
2018-10-03T22:31:50.914Z,86.199997
2018-10-03T22:36:53.248Z,86.300003
2018-10-03T22:41:55.388Z,86.199997
2018-10-03T22:46:57.778Z,86.400002
2018-10-03T22:52:00.209Z,86
2018-10-03T22:57:02.323Z,86.800003
2018-10-03T23:02:04.692Z,87.400002
2018-10-03T23:07:07.029Z,86.699997
2018-10-03T23:12:09.149Z,86.099998
2018-10-03T23:17:11.444Z,85.699997
2018-10-03T23:22:13.885Z,85.599998
2018-10-03T23:27:16.148Z,85.900002
2018-10-03T23:32:18.379Z,85.900002
2018-10-03T23:37:20.769Z,85.800003
2018-10-03T23:42:23.025Z,87.300003
2018-10-03T23:47:25.269Z,86
2018-10-03T23:52:27.536Z,85.900002
2018-10-03T23:57:29.890Z,86.599998
